JST787 YBSU-YSSY
Flight info
| Callsign | JST787 |
|---|---|
| Flight time | 1h 17m |
| Altitude | 36000 |
| Route | SU Q35 SANEG H91 IGDAM H652 TESAT |
| Aircraft | A21N/M-SDE2E3FGHIRWXY/LB1 |
Departure
| Time | 2026-04-23 06:28 |
|---|---|
| Airport | Sunshine Coast Airport (YBSU) |
Arrival
| Time | 2026-04-23 07:46 |
|---|---|
| Airport | Sydney Kingsford Smith International Airport (YSSY) |
| Time | Latitude | Longitude | Altitude | Speed | Heading |
|---|---|---|---|---|---|
| 2026-04-23 05:51 | -26.60606 | 153.08947 | 24 ft | 0 kts | 283° |
| 2026-04-23 06:19 | -26.60608 | 153.08957 | 24 ft | 4 kts | 280° |
| 2026-04-23 06:20 | -26.60610 | 153.08987 | 24 ft | 4 kts | 270° |
| 2026-04-23 06:20 | -26.60613 | 153.09016 | 24 ft | 4 kts | 292° |
| 2026-04-23 06:20 | -26.60624 | 153.09037 | 24 ft | 4 kts | 333° |
| 2026-04-23 06:20 | -26.60647 | 153.09039 | 24 ft | 4 kts | 18° |
| 2026-04-23 06:21 | -26.60667 | 153.09032 | 24 ft | 0 kts | 15° |
| 2026-04-23 06:23 | -26.60666 | 153.09032 | 24 ft | 0 kts | 15° |
| 2026-04-23 06:23 | -26.60660 | 153.09033 | 26 ft | 2 kts | 15° |
| 2026-04-23 06:23 | -26.60620 | 153.09046 | 26 ft | 10 kts | 15° |
| 2026-04-23 06:23 | -26.60545 | 153.09069 | 28 ft | 12 kts | 20° |
| 2026-04-23 06:24 | -26.60465 | 153.09146 | 26 ft | 18 kts | 24° |
| 2026-04-23 06:24 | -26.60320 | 153.09159 | 27 ft | 24 kts | 330° |
| 2026-04-23 06:24 | -26.60165 | 153.09040 | 26 ft | 30 kts | 324° |
| 2026-04-23 06:24 | -26.59986 | 153.08891 | 25 ft | 34 kts | 322° |
| 2026-04-23 06:25 | -26.59788 | 153.08718 | 27 ft | 38 kts | 323° |
| 2026-04-23 06:25 | -26.59569 | 153.08529 | 30 ft | 42 kts | 322° |
| 2026-04-23 06:25 | -26.59333 | 153.08326 | 26 ft | 45 kts | 323° |
| 2026-04-23 06:25 | -26.59075 | 153.08109 | 27 ft | 47 kts | 322° |
| 2026-04-23 06:26 | -26.58824 | 153.07895 | 26 ft | 39 kts | 322° |
| 2026-04-23 06:26 | -26.58634 | 153.07735 | 27 ft | 23 kts | 323° |
| 2026-04-23 06:26 | -26.58521 | 153.07638 | 25 ft | 22 kts | 322° |
| 2026-04-23 06:26 | -26.58432 | 153.07506 | 24 ft | 11 kts | 289° |
| 2026-04-23 06:27 | -26.58363 | 153.07449 | 26 ft | 14 kts | 25° |
| 2026-04-23 06:27 | -26.58392 | 153.07529 | 29 ft | 17 kts | 143° |
| 2026-04-23 06:27 | -26.58609 | 153.07710 | 25 ft | 68 kts | 142° |
| 2026-04-23 06:27 | -26.59170 | 153.08188 | 24 ft | 137 kts | 143° |
| 2026-04-23 06:28 | -26.60074 | 153.08955 | 231 ft | 176 kts | 143° |
| 2026-04-23 06:28 | -26.61026 | 153.09771 | 1128 ft | 170 kts | 144° |
| 2026-04-23 06:28 | -26.61957 | 153.10564 | 2054 ft | 168 kts | 144° |
| 2026-04-23 06:28 | -26.62916 | 153.11384 | 2487 ft | 182 kts | 144° |
| 2026-04-23 06:29 | -26.63964 | 153.12302 | 2781 ft | 200 kts | 140° |
| 2026-04-23 06:29 | -26.64993 | 153.13460 | 3109 ft | 218 kts | 134° |
| 2026-04-23 06:29 | -26.66010 | 153.14758 | 3635 ft | 226 kts | 133° |
| 2026-04-23 06:29 | -26.67055 | 153.16118 | 4046 ft | 241 kts | 133° |
| 2026-04-23 06:30 | -26.68166 | 153.17557 | 4690 ft | 247 kts | 132° |
| 2026-04-23 06:30 | -26.69289 | 153.19019 | 5384 ft | 250 kts | 132° |
| 2026-04-23 06:30 | -26.70431 | 153.20508 | 6135 ft | 253 kts | 133° |
| 2026-04-23 06:30 | -26.71582 | 153.22002 | 6947 ft | 254 kts | 132° |
| 2026-04-23 06:31 | -26.72742 | 153.23511 | 7664 ft | 259 kts | 132° |
| 2026-04-23 06:31 | -26.73934 | 153.25055 | 8332 ft | 265 kts | 133° |
| 2026-04-23 06:31 | -26.75147 | 153.26625 | 9033 ft | 269 kts | 132° |
| 2026-04-23 06:31 | -26.76374 | 153.28215 | 9764 ft | 271 kts | 132° |
| 2026-04-23 06:32 | -26.77617 | 153.29828 | 10407 ft | 279 kts | 132° |
| 2026-04-23 06:32 | -26.78911 | 153.31504 | 10712 ft | 298 kts | 132° |
| 2026-04-23 06:32 | -26.80333 | 153.33289 | 11002 ft | 317 kts | 136° |
| 2026-04-23 06:32 | -26.82086 | 153.34862 | 11358 ft | 330 kts | 150° |
| 2026-04-23 06:33 | -26.84224 | 153.35866 | 11877 ft | 338 kts | 166° |
| 2026-04-23 06:33 | -26.86576 | 153.36227 | 12502 ft | 344 kts | 175° |
| 2026-04-23 06:33 | -26.88979 | 153.36297 | 13176 ft | 347 kts | 180° |
| 2026-04-23 06:33 | -26.91402 | 153.36223 | 13833 ft | 350 kts | 182° |
| 2026-04-23 06:34 | -26.93851 | 153.36093 | 14405 ft | 355 kts | 182° |
| 2026-04-23 06:34 | -26.96328 | 153.35952 | 15015 ft | 358 kts | 182° |
| 2026-04-23 06:34 | -26.98788 | 153.35826 | 15637 ft | 360 kts | 182° |
| 2026-04-23 06:34 | -27.01302 | 153.35717 | 16230 ft | 363 kts | 182° |
| 2026-04-23 06:35 | -27.03836 | 153.35624 | 16813 ft | 366 kts | 182° |
| 2026-04-23 06:35 | -27.06398 | 153.35542 | 17373 ft | 370 kts | 182° |
| 2026-04-23 06:35 | -27.08977 | 153.35466 | 17950 ft | 372 kts | 182° |
| 2026-04-23 06:35 | -27.11570 | 153.35392 | 18492 ft | 375 kts | 182° |
| 2026-04-23 06:36 | -27.14190 | 153.35317 | 18981 ft | 379 kts | 182° |
| 2026-04-23 06:36 | -27.16840 | 153.35240 | 19459 ft | 382 kts | 182° |
| 2026-04-23 06:36 | -27.19470 | 153.35164 | 19977 ft | 384 kts | 182° |
| 2026-04-23 06:36 | -27.22141 | 153.35087 | 20498 ft | 385 kts | 183° |
| 2026-04-23 06:37 | -27.24836 | 153.35007 | 20908 ft | 390 kts | 183° |
| 2026-04-23 06:37 | -27.27562 | 153.34925 | 21323 ft | 393 kts | 183° |
| 2026-04-23 06:37 | -27.30306 | 153.34841 | 21770 ft | 396 kts | 183° |
| 2026-04-23 06:37 | -27.33062 | 153.34711 | 22179 ft | 397 kts | 187° |
| 2026-04-23 06:38 | -27.35799 | 153.34254 | 22595 ft | 399 kts | 194° |
| 2026-04-23 06:38 | -27.38452 | 153.33350 | 23036 ft | 399 kts | 203° |
| 2026-04-23 06:38 | -27.40970 | 153.32023 | 23432 ft | 401 kts | 208° |
| 2026-04-23 06:38 | -27.43390 | 153.30534 | 23847 ft | 402 kts | 210° |
| 2026-04-23 06:39 | -27.45806 | 153.28932 | 24235 ft | 405 kts | 212° |
| 2026-04-23 06:39 | -27.48222 | 153.27272 | 24583 ft | 408 kts | 212° |
| 2026-04-23 06:39 | -27.50646 | 153.25591 | 24943 ft | 410 kts | 212° |
| 2026-04-23 06:39 | -27.53085 | 153.23904 | 25309 ft | 413 kts | 212° |
| 2026-04-23 06:40 | -27.55544 | 153.22217 | 25676 ft | 414 kts | 212° |
| 2026-04-23 06:40 | -27.58017 | 153.20530 | 25982 ft | 417 kts | 212° |
| 2026-04-23 06:40 | -27.60505 | 153.18838 | 26279 ft | 419 kts | 212° |
| 2026-04-23 06:40 | -27.63008 | 153.17142 | 26617 ft | 420 kts | 212° |
| 2026-04-23 06:41 | -27.65485 | 153.15463 | 26897 ft | 422 kts | 212° |
| 2026-04-23 06:41 | -27.68011 | 153.13752 | 27121 ft | 425 kts | 213° |
| 2026-04-23 06:41 | -27.70553 | 153.12030 | 27366 ft | 427 kts | 213° |
| 2026-04-23 06:41 | -27.73106 | 153.10299 | 27623 ft | 429 kts | 213° |
| 2026-04-23 06:42 | -27.75668 | 153.08561 | 27921 ft | 430 kts | 213° |
| 2026-04-23 06:42 | -27.78235 | 153.06818 | 28155 ft | 431 kts | 213° |
| 2026-04-23 06:42 | -27.80839 | 153.05113 | 28384 ft | 434 kts | 209° |
| 2026-04-23 06:42 | -27.83592 | 153.03690 | 28689 ft | 435 kts | 205° |
| 2026-04-23 06:43 | -27.86386 | 153.02379 | 29063 ft | 434 kts | 205° |
| 2026-04-23 06:43 | -27.89191 | 153.01116 | 29395 ft | 434 kts | 204° |
| 2026-04-23 06:43 | -27.91967 | 152.99897 | 29740 ft | 433 kts | 204° |
| 2026-04-23 06:43 | -27.94781 | 152.98675 | 30070 ft | 433 kts | 204° |
| 2026-04-23 06:44 | -27.97593 | 152.97456 | 30401 ft | 433 kts | 204° |
| 2026-04-23 06:44 | -28.00400 | 152.96237 | 30715 ft | 432 kts | 204° |
| 2026-04-23 06:44 | -28.03196 | 152.95017 | 31022 ft | 431 kts | 204° |
| 2026-04-23 06:44 | -28.05979 | 152.93800 | 31436 ft | 427 kts | 204° |
| 2026-04-23 06:45 | -28.08746 | 152.92586 | 31752 ft | 426 kts | 204° |
| 2026-04-23 06:45 | -28.11503 | 152.91369 | 31978 ft | 426 kts | 204° |
| 2026-04-23 06:45 | -28.14230 | 152.90159 | 32201 ft | 426 kts | 205° |
| 2026-04-23 06:45 | -28.16989 | 152.88931 | 32423 ft | 427 kts | 205° |
| 2026-04-23 06:46 | -28.19752 | 152.87699 | 32651 ft | 427 kts | 205° |
| 2026-04-23 06:46 | -28.22513 | 152.86468 | 32869 ft | 426 kts | 205° |
| 2026-04-23 06:46 | -28.25273 | 152.85239 | 33101 ft | 426 kts | 205° |
| 2026-04-23 06:46 | -28.28031 | 152.84011 | 33316 ft | 426 kts | 205° |
| 2026-04-23 06:47 | -28.30788 | 152.82782 | 33510 ft | 426 kts | 205° |
| 2026-04-23 06:47 | -28.33543 | 152.81552 | 33727 ft | 425 kts | 205° |
| 2026-04-23 06:47 | -28.36296 | 152.80323 | 33941 ft | 425 kts | 205° |
| 2026-04-23 06:47 | -28.39007 | 152.79114 | 34134 ft | 424 kts | 205° |
| 2026-04-23 06:48 | -28.41761 | 152.77884 | 34283 ft | 425 kts | 205° |
| 2026-04-23 06:48 | -28.44508 | 152.76657 | 34479 ft | 424 kts | 205° |
| 2026-04-23 06:48 | -28.47257 | 152.75429 | 34656 ft | 424 kts | 205° |
| 2026-04-23 06:48 | -28.50005 | 152.74198 | 34836 ft | 424 kts | 205° |
| 2026-04-23 06:49 | -28.52745 | 152.72972 | 35009 ft | 423 kts | 205° |
| 2026-04-23 06:49 | -28.55481 | 152.71747 | 35145 ft | 423 kts | 205° |
| 2026-04-23 06:49 | -28.58220 | 152.70519 | 35291 ft | 423 kts | 205° |
| 2026-04-23 06:49 | -28.60960 | 152.69290 | 35424 ft | 423 kts | 205° |
| 2026-04-23 06:50 | -28.63701 | 152.68060 | 35573 ft | 423 kts | 205° |
| 2026-04-23 06:50 | -28.66441 | 152.66831 | 35704 ft | 423 kts | 205° |
| 2026-04-23 06:50 | -28.71897 | 152.64379 | 35851 ft | 426 kts | 205° |
| 2026-04-23 06:51 | -28.74654 | 152.63139 | 35959 ft | 426 kts | 205° |
| 2026-04-23 06:51 | -28.77414 | 152.61898 | 36057 ft | 427 kts | 205° |
| 2026-04-23 06:51 | -28.80177 | 152.60654 | 36174 ft | 427 kts | 205° |
| 2026-04-23 06:51 | -28.82939 | 152.59410 | 36259 ft | 428 kts | 205° |
| 2026-04-23 06:52 | -28.88499 | 152.56904 | 36266 ft | 430 kts | 205° |
| 2026-04-23 06:52 | -28.94024 | 152.54414 | 36274 ft | 429 kts | 205° |
| 2026-04-23 06:53 | -28.99572 | 152.51909 | 36275 ft | 429 kts | 205° |
| 2026-04-23 06:53 | -29.05121 | 152.49404 | 36275 ft | 428 kts | 205° |
| 2026-04-23 06:54 | -29.10653 | 152.46904 | 36274 ft | 427 kts | 205° |
| 2026-04-23 06:54 | -29.16143 | 152.44423 | 36283 ft | 427 kts | 205° |
| 2026-04-23 06:55 | -29.21664 | 152.41919 | 36283 ft | 427 kts | 205° |
| 2026-04-23 06:55 | -29.27177 | 152.39416 | 36285 ft | 426 kts | 205° |
| 2026-04-23 06:56 | -29.32683 | 152.36916 | 36285 ft | 425 kts | 205° |
| 2026-04-23 06:56 | -29.38136 | 152.34433 | 36294 ft | 425 kts | 205° |
| 2026-04-23 06:57 | -29.43619 | 152.31934 | 36292 ft | 424 kts | 205° |
| 2026-04-23 06:57 | -29.49108 | 152.29434 | 36292 ft | 424 kts | 204° |
| 2026-04-23 06:58 | -29.54588 | 152.26937 | 36293 ft | 424 kts | 204° |
| 2026-04-23 06:58 | -29.60066 | 152.24436 | 36295 ft | 424 kts | 204° |
| 2026-04-23 06:59 | -29.65543 | 152.21933 | 36306 ft | 423 kts | 204° |
| 2026-04-23 06:59 | -29.71005 | 152.19433 | 36301 ft | 422 kts | 204° |
| 2026-04-23 07:00 | -29.76425 | 152.16949 | 36302 ft | 422 kts | 204° |
| 2026-04-23 07:00 | -29.81874 | 152.14449 | 36299 ft | 422 kts | 204° |
| 2026-04-23 07:01 | -29.87332 | 152.11942 | 36299 ft | 422 kts | 204° |
| 2026-04-23 07:01 | -29.92786 | 152.09435 | 36298 ft | 422 kts | 204° |
| 2026-04-23 07:02 | -29.98201 | 152.06944 | 36309 ft | 422 kts | 204° |
| 2026-04-23 07:02 | -30.03648 | 152.04434 | 36301 ft | 422 kts | 204° |
| 2026-04-23 07:03 | -30.09095 | 152.01920 | 36300 ft | 421 kts | 204° |
| 2026-04-23 07:03 | -30.14546 | 151.99403 | 36310 ft | 421 kts | 204° |
| 2026-04-23 07:04 | -30.19987 | 151.96887 | 36307 ft | 421 kts | 204° |
| 2026-04-23 07:04 | -30.25392 | 151.94383 | 36312 ft | 421 kts | 204° |
| 2026-04-23 07:05 | -30.30829 | 151.91862 | 36309 ft | 421 kts | 204° |
| 2026-04-23 07:05 | -30.36261 | 151.89341 | 36310 ft | 421 kts | 204° |
| 2026-04-23 07:06 | -30.41688 | 151.86818 | 36307 ft | 420 kts | 204° |
| 2026-04-23 07:06 | -30.47114 | 151.84293 | 36314 ft | 420 kts | 204° |
| 2026-04-23 07:07 | -30.52502 | 151.81783 | 36321 ft | 420 kts | 204° |
| 2026-04-23 07:07 | -30.57917 | 151.79258 | 36326 ft | 420 kts | 204° |
| 2026-04-23 07:08 | -30.63332 | 151.76729 | 36320 ft | 419 kts | 204° |
| 2026-04-23 07:08 | -30.68747 | 151.74198 | 36320 ft | 419 kts | 204° |
| 2026-04-23 07:09 | -30.74161 | 151.71664 | 36315 ft | 419 kts | 204° |
| 2026-04-23 07:09 | -30.79536 | 151.69144 | 36322 ft | 419 kts | 203° |
| 2026-04-23 07:10 | -30.84933 | 151.66608 | 36320 ft | 418 kts | 203° |
| 2026-04-23 07:10 | -30.90335 | 151.64071 | 36322 ft | 419 kts | 203° |
| 2026-04-23 07:11 | -30.94819 | 151.61963 | 36323 ft | 418 kts | 203° |
| 2026-04-23 07:12 | -31.03777 | 151.57745 | 36343 ft | 417 kts | 203° |
| 2026-04-23 07:12 | -31.09161 | 151.55206 | 36347 ft | 417 kts | 203° |
| 2026-04-23 07:13 | -31.13660 | 151.53080 | 36351 ft | 422 kts | 203° |
| 2026-04-23 07:13 | -31.19121 | 151.50497 | 36347 ft | 424 kts | 203° |
| 2026-04-23 07:14 | -31.25470 | 151.47493 | 36349 ft | 423 kts | 203° |
| 2026-04-23 07:14 | -31.30918 | 151.44908 | 36348 ft | 422 kts | 203° |
| 2026-04-23 07:15 | -31.35445 | 151.42760 | 36349 ft | 422 kts | 203° |
| 2026-04-23 07:15 | -31.40897 | 151.40208 | 36359 ft | 422 kts | 202° |
| 2026-04-23 07:16 | -31.46388 | 151.37752 | 36357 ft | 422 kts | 201° |
| 2026-04-23 07:16 | -31.51886 | 151.35316 | 36358 ft | 422 kts | 201° |
| 2026-04-23 07:17 | -31.57343 | 151.32886 | 36355 ft | 422 kts | 201° |
| 2026-04-23 07:17 | -31.62831 | 151.30432 | 36358 ft | 423 kts | 201° |
| 2026-04-23 07:18 | -31.68320 | 151.27970 | 36358 ft | 422 kts | 201° |
| 2026-04-23 07:18 | -31.73810 | 151.25503 | 36360 ft | 422 kts | 201° |
| 2026-04-23 07:19 | -31.79262 | 151.23052 | 36369 ft | 422 kts | 202° |
| 2026-04-23 07:19 | -31.84749 | 151.20581 | 36366 ft | 422 kts | 201° |
| 2026-04-23 07:20 | -31.90230 | 151.18112 | 36366 ft | 422 kts | 201° |
| 2026-04-23 07:20 | -31.95715 | 151.15641 | 36366 ft | 422 kts | 201° |
| 2026-04-23 07:21 | -32.01113 | 151.13222 | 36368 ft | 412 kts | 201° |
| 2026-04-23 07:21 | -32.06389 | 151.10857 | 36371 ft | 400 kts | 201° |
| 2026-04-23 07:22 | -32.11515 | 151.08556 | 36371 ft | 389 kts | 201° |
| 2026-04-23 07:22 | -32.16541 | 151.06295 | 35703 ft | 390 kts | 201° |
| 2026-04-23 07:22 | -32.19107 | 151.05140 | 34763 ft | 399 kts | 201° |
| 2026-04-23 07:23 | -32.21694 | 151.03975 | 33811 ft | 407 kts | 201° |
| 2026-04-23 07:23 | -32.24360 | 151.02774 | 32835 ft | 414 kts | 200° |
| 2026-04-23 07:23 | -32.27077 | 151.01548 | 31815 ft | 422 kts | 200° |
| 2026-04-23 07:23 | -32.29831 | 151.00307 | 30961 ft | 424 kts | 200° |
| 2026-04-23 07:24 | -32.32585 | 150.99064 | 30268 ft | 423 kts | 200° |
| 2026-04-23 07:24 | -32.35319 | 150.97830 | 29706 ft | 418 kts | 199° |
| 2026-04-23 07:24 | -32.38024 | 150.96607 | 29045 ft | 415 kts | 199° |
| 2026-04-23 07:24 | -32.40716 | 150.95389 | 28386 ft | 413 kts | 199° |
| 2026-04-23 07:25 | -32.43342 | 150.94200 | 27721 ft | 404 kts | 199° |
| 2026-04-23 07:25 | -32.45922 | 150.93029 | 27140 ft | 391 kts | 199° |
| 2026-04-23 07:25 | -32.48480 | 150.92072 | 26680 ft | 382 kts | 190° |
| 2026-04-23 07:25 | -32.51094 | 150.91748 | 26224 ft | 375 kts | 178° |
| 2026-04-23 07:26 | -32.53677 | 150.91922 | 25788 ft | 370 kts | 175° |
| 2026-04-23 07:26 | -32.56210 | 150.92257 | 25352 ft | 365 kts | 172° |
| 2026-04-23 07:26 | -32.58702 | 150.92683 | 24934 ft | 359 kts | 171° |
| 2026-04-23 07:26 | -32.61157 | 150.93144 | 24517 ft | 355 kts | 171° |
| 2026-04-23 07:27 | -32.63548 | 150.93602 | 24094 ft | 351 kts | 171° |
| 2026-04-23 07:27 | -32.65944 | 150.94057 | 23672 ft | 347 kts | 171° |
| 2026-04-23 07:27 | -32.68311 | 150.94497 | 23243 ft | 341 kts | 171° |
| 2026-04-23 07:27 | -32.70617 | 150.94917 | 22727 ft | 332 kts | 171° |
| 2026-04-23 07:28 | -32.72905 | 150.95328 | 22323 ft | 333 kts | 171° |
| 2026-04-23 07:28 | -32.75200 | 150.95738 | 22052 ft | 333 kts | 171° |
| 2026-04-23 07:28 | -32.77479 | 150.96144 | 21650 ft | 329 kts | 171° |
| 2026-04-23 07:28 | -32.79705 | 150.96537 | 21250 ft | 326 kts | 171° |
| 2026-04-23 07:29 | -32.81937 | 150.96932 | 20847 ft | 323 kts | 170° |
| 2026-04-23 07:29 | -32.84151 | 150.97326 | 20457 ft | 321 kts | 170° |
| 2026-04-23 07:29 | -32.86359 | 150.97718 | 20066 ft | 320 kts | 170° |
| 2026-04-23 07:29 | -32.88557 | 150.98109 | 19679 ft | 318 kts | 170° |
| 2026-04-23 07:30 | -32.90738 | 150.98496 | 19291 ft | 316 kts | 170° |
| 2026-04-23 07:30 | -32.92908 | 150.98884 | 18907 ft | 315 kts | 170° |
| 2026-04-23 07:30 | -32.95066 | 150.99269 | 18521 ft | 313 kts | 170° |
| 2026-04-23 07:30 | -32.97212 | 150.99652 | 18140 ft | 311 kts | 169° |
| 2026-04-23 07:31 | -32.99348 | 151.00033 | 17761 ft | 309 kts | 169° |
| 2026-04-23 07:31 | -33.01440 | 151.00406 | 17389 ft | 307 kts | 169° |
| 2026-04-23 07:31 | -33.03552 | 151.00783 | 17015 ft | 306 kts | 169° |
| 2026-04-23 07:31 | -33.05650 | 151.01158 | 16644 ft | 305 kts | 169° |
| 2026-04-23 07:32 | -33.07743 | 151.01532 | 16261 ft | 304 kts | 169° |
| 2026-04-23 07:32 | -33.09829 | 151.01905 | 15885 ft | 302 kts | 169° |
| 2026-04-23 07:32 | -33.11905 | 151.02277 | 15510 ft | 301 kts | 169° |
| 2026-04-23 07:32 | -33.13972 | 151.02646 | 15134 ft | 300 kts | 169° |
| 2026-04-23 07:33 | -33.16033 | 151.03015 | 14765 ft | 299 kts | 169° |
| 2026-04-23 07:33 | -33.18085 | 151.03388 | 14403 ft | 298 kts | 169° |
| 2026-04-23 07:33 | -33.20102 | 151.03751 | 14037 ft | 297 kts | 169° |
| 2026-04-23 07:33 | -33.22141 | 151.04121 | 13674 ft | 296 kts | 169° |
| 2026-04-23 07:34 | -33.24169 | 151.04494 | 13293 ft | 295 kts | 169° |
| 2026-04-23 07:34 | -33.26191 | 151.04874 | 12910 ft | 293 kts | 169° |
| 2026-04-23 07:34 | -33.28241 | 151.05131 | 12562 ft | 303 kts | 173° |
| 2026-04-23 07:34 | -33.30369 | 151.05397 | 12234 ft | 310 kts | 171° |
| 2026-04-23 07:35 | -33.32516 | 151.05726 | 11915 ft | 311 kts | 171° |
| 2026-04-23 07:35 | -33.34650 | 151.06050 | 11585 ft | 305 kts | 170° |
| 2026-04-23 07:35 | -33.36729 | 151.06422 | 11258 ft | 303 kts | 169° |
| 2026-04-23 07:35 | -33.38782 | 151.06808 | 10940 ft | 300 kts | 169° |
| 2026-04-23 07:36 | -33.40856 | 151.07200 | 10259 ft | 304 kts | 169° |
| 2026-04-23 07:36 | -33.42910 | 151.07583 | 10083 ft | 291 kts | 169° |
| 2026-04-23 07:36 | -33.44862 | 151.07942 | 9975 ft | 276 kts | 169° |
| 2026-04-23 07:36 | -33.46716 | 151.08279 | 9838 ft | 263 kts | 169° |
| 2026-04-23 07:37 | -33.48497 | 151.08599 | 9589 ft | 255 kts | 169° |
| 2026-04-23 07:37 | -33.50249 | 151.08918 | 9154 ft | 255 kts | 169° |
| 2026-04-23 07:37 | -33.51978 | 151.09234 | 8752 ft | 254 kts | 169° |
| 2026-04-23 07:37 | -33.53726 | 151.09552 | 8347 ft | 253 kts | 170° |
| 2026-04-23 07:38 | -33.55451 | 151.09865 | 7996 ft | 249 kts | 169° |
| 2026-04-23 07:38 | -33.57158 | 151.10175 | 7685 ft | 247 kts | 169° |
| 2026-04-23 07:38 | -33.58852 | 151.10481 | 7375 ft | 245 kts | 169° |
| 2026-04-23 07:38 | -33.60538 | 151.10783 | 7047 ft | 244 kts | 170° |
| 2026-04-23 07:39 | -33.62214 | 151.11085 | 6720 ft | 242 kts | 170° |
| 2026-04-23 07:39 | -33.63876 | 151.11386 | 6408 ft | 241 kts | 170° |
| 2026-04-23 07:39 | -33.65503 | 151.11682 | 6098 ft | 238 kts | 170° |
| 2026-04-23 07:39 | -33.67138 | 151.11975 | 5804 ft | 237 kts | 170° |
| 2026-04-23 07:40 | -33.68767 | 151.12268 | 5533 ft | 237 kts | 169° |
| 2026-04-23 07:40 | -33.70400 | 151.12567 | 5248 ft | 237 kts | 169° |
| 2026-04-23 07:40 | -33.72021 | 151.12910 | 4969 ft | 235 kts | 167° |
| 2026-04-23 07:40 | -33.73615 | 151.13304 | 4685 ft | 232 kts | 166° |
| 2026-04-23 07:41 | -33.75197 | 151.13710 | 4432 ft | 232 kts | 166° |
| 2026-04-23 07:41 | -33.76757 | 151.14113 | 4265 ft | 223 kts | 167° |
| 2026-04-23 07:41 | -33.78236 | 151.14495 | 4036 ft | 214 kts | 166° |
| 2026-04-23 07:41 | -33.79639 | 151.14858 | 3930 ft | 201 kts | 166° |
| 2026-04-23 07:42 | -33.80953 | 151.15196 | 3785 ft | 186 kts | 166° |
| 2026-04-23 07:42 | -33.82164 | 151.15507 | 3627 ft | 170 kts | 166° |
| 2026-04-23 07:42 | -33.83283 | 151.15791 | 3481 ft | 162 kts | 166° |
| 2026-04-23 07:42 | -33.84382 | 151.16075 | 3363 ft | 162 kts | 166° |
| 2026-04-23 07:43 | -33.85482 | 151.16366 | 3141 ft | 164 kts | 165° |
| 2026-04-23 07:43 | -33.86626 | 151.16680 | 2567 ft | 173 kts | 166° |
| 2026-04-23 07:43 | -33.87811 | 151.16997 | 2034 ft | 175 kts | 166° |
| 2026-04-23 07:43 | -33.89007 | 151.17295 | 1528 ft | 176 kts | 167° |
| 2026-04-23 07:44 | -33.90185 | 151.17583 | 1190 ft | 164 kts | 168° |
| 2026-04-23 07:44 | -33.91227 | 151.17865 | 960 ft | 148 kts | 165° |
| 2026-04-23 07:44 | -33.92195 | 151.18136 | 690 ft | 138 kts | 167° |
| 2026-04-23 07:44 | -33.93114 | 151.18351 | 480 ft | 133 kts | 168° |
| 2026-04-23 07:45 | -33.94022 | 151.18586 | 317 ft | 134 kts | 168° |
| 2026-04-23 07:45 | -33.94938 | 151.18824 | 87 ft | 135 kts | 167° |
| 2026-04-23 07:45 | -33.95803 | 151.19044 | 31 ft | 112 kts | 167° |
| 2026-04-23 07:45 | -33.96386 | 151.19196 | 28 ft | 59 kts | 169° |
| 2026-04-23 07:46 | -33.96653 | 151.19188 | 28 ft | 29 kts | 195° |
| 2026-04-23 07:46 | -33.96705 | 151.19102 | 32 ft | 11 kts | 291° |
| 2026-04-23 07:46 | -33.96653 | 151.19066 | 32 ft | 7 kts | 350° |
| 2026-04-23 07:46 | -33.96600 | 151.19053 | 33 ft | 9 kts | 347° |
| 2026-04-23 07:47 | -33.96532 | 151.19034 | 32 ft | 11 kts | 347° |
| 2026-04-23 07:47 | -33.96451 | 151.19013 | 33 ft | 13 kts | 348° |
| 2026-04-23 07:47 | -33.96356 | 151.18990 | 33 ft | 15 kts | 348° |
| 2026-04-23 07:47 | -33.96251 | 151.18962 | 33 ft | 16 kts | 348° |
| 2026-04-23 07:48 | -33.96134 | 151.18931 | 32 ft | 18 kts | 348° |
| 2026-04-23 07:48 | -33.96007 | 151.18898 | 33 ft | 19 kts | 348° |
| 2026-04-23 07:48 | -33.95870 | 151.18863 | 33 ft | 21 kts | 347° |
| 2026-04-23 07:48 | -33.95725 | 151.18825 | 33 ft | 21 kts | 348° |
| 2026-04-23 07:49 | -33.95579 | 151.18788 | 33 ft | 21 kts | 348° |
| 2026-04-23 07:49 | -33.95435 | 151.18752 | 33 ft | 22 kts | 348° |
| 2026-04-23 07:49 | -33.95291 | 151.18706 | 33 ft | 21 kts | 337° |
| 2026-04-23 07:49 | -33.95174 | 151.18607 | 33 ft | 13 kts | 318° |
| 2026-04-23 07:50 | -33.95119 | 151.18518 | 32 ft | 13 kts | 289° |
| 2026-04-23 07:50 | -33.95119 | 151.18408 | 33 ft | 13 kts | 258° |
| 2026-04-23 07:50 | -33.95139 | 151.18297 | 33 ft | 14 kts | 257° |
| 2026-04-23 07:50 | -33.95154 | 151.18211 | 33 ft | 9 kts | 258° |
| 2026-04-23 07:51 | -33.95167 | 151.18137 | 33 ft | 10 kts | 258° |
| 2026-04-23 07:51 | -33.95182 | 151.18054 | 33 ft | 11 kts | 257° |
| 2026-04-23 07:51 | -33.95171 | 151.17970 | 33 ft | 11 kts | 316° |
| 2026-04-23 07:51 | -33.95096 | 151.17942 | 33 ft | 12 kts | 348° |
| 2026-04-23 07:52 | -33.95012 | 151.17921 | 33 ft | 13 kts | 348° |
| 2026-04-23 07:52 | -33.94919 | 151.17898 | 33 ft | 14 kts | 348° |
| 2026-04-23 07:52 | -33.94818 | 151.17872 | 33 ft | 15 kts | 347° |
| 2026-04-23 07:52 | -33.94711 | 151.17843 | 33 ft | 16 kts | 347° |
| 2026-04-23 07:53 | -33.94597 | 151.17812 | 33 ft | 17 kts | 347° |
| 2026-04-23 07:53 | -33.94478 | 151.17779 | 33 ft | 18 kts | 346° |
| 2026-04-23 07:53 | -33.94356 | 151.17743 | 33 ft | 19 kts | 345° |
| 2026-04-23 07:53 | -33.94227 | 151.17703 | 32 ft | 20 kts | 345° |
| 2026-04-23 07:54 | -33.94092 | 151.17661 | 31 ft | 21 kts | 347° |
| 2026-04-23 07:54 | -33.93953 | 151.17623 | 32 ft | 21 kts | 348° |
| 2026-04-23 07:54 | -33.93857 | 151.17700 | 32 ft | 19 kts | 75° |
| 2026-04-23 07:54 | -33.93759 | 151.17780 | 33 ft | 18 kts | 13° |
| 2026-04-23 07:55 | -33.93092 | 151.18029 | 1960 ft | 265 kts | 19° |
| 2026-04-23 07:55 | -33.93569 | 151.17827 | 33 ft | 19 kts | 11° |
| 2026-04-23 07:56 | -33.93523 | 151.17838 | 33 ft | 3 kts | 11° |
| 2026-04-23 07:56 | -33.93512 | 151.17840 | 33 ft | 2 kts | 8° |
| 2026-04-23 07:56 | -33.93499 | 151.17833 | 33 ft | 2 kts | 317° |
| 2026-04-23 07:56 | -33.93491 | 151.17807 | 33 ft | 4 kts | 284° |
| 2026-04-23 07:57 | -33.93488 | 151.17789 | 33 ft | 2 kts | 280° |
| 2026-04-23 07:57 | -33.93486 | 151.17781 | 33 ft | 0 kts | 280° |
| 2026-04-23 07:57 | -33.93486 | 151.17777 | 33 ft | 0 kts | 280° |
| 2026-04-23 08:05 | -33.93490 | 151.17798 | 33 ft | 4 kts | 297° |
| 2026-04-23 08:05 | -33.93501 | 151.17815 | 33 ft | 4 kts | 20° |
| 2026-04-23 08:05 | -33.93485 | 151.17773 | 33 ft | 0 kts | 278° |
| 2026-04-23 08:06 | -33.93486 | 151.17777 | 33 ft | 0 kts | 280° |
| 2026-04-23 08:08 | -33.93487 | 151.17783 | 33 ft | 4 kts | 282° |
| 2026-04-23 08:08 | -33.93497 | 151.17812 | 33 ft | 4 kts | 298° |
| 2026-04-23 08:08 | -33.93500 | 151.17834 | 33 ft | 4 kts | 248° |
| 2026-04-23 08:08 | -33.93485 | 151.17847 | 33 ft | 3 kts | 189° |
| 2026-04-23 08:09 | -33.93497 | 151.17845 | 31 ft | 4 kts | 189° |
| 2026-04-23 08:09 | -33.93524 | 151.17839 | 33 ft | 4 kts | 189° |
| 2026-04-23 08:09 | -33.93537 | 151.17836 | 33 ft | 0 kts | 189° |
| 2026-04-23 08:13 | -33.93548 | 151.17834 | 32 ft | 4 kts | 189° |
| 2026-04-23 08:14 | -33.93559 | 151.17831 | 33 ft | 0 kts | 189° |
| 2026-04-23 08:14 | -33.93581 | 151.17827 | 33 ft | 4 kts | 189° |
| 2026-04-23 08:15 | -33.93602 | 151.17822 | 32 ft | 0 kts | 189° |
| 2026-04-23 08:21 | -33.93642 | 151.17747 | 33 ft | 16 kts | 295° |
| 2026-04-23 08:22 | -33.93602 | 151.17673 | 33 ft | 16 kts | 309° |
| 2026-04-23 08:22 | -33.93529 | 151.17598 | 33 ft | 10 kts | 341° |
| 2026-04-23 08:22 | -33.93506 | 151.17634 | 33 ft | 7 kts | 97° |
| 2026-04-23 08:22 | -33.93513 | 151.17685 | 33 ft | 7 kts | 101° |
| 2026-04-23 08:23 | -33.93514 | 151.17690 | 33 ft | 0 kts | 101° |